Etusivu
METAR-TAF:

METAR-TAF

Lentoasemat :

Antigua, Antigua ja Barbuda

Leveyspiiri: 17-07N, Pituuspiiri: 061-47W, korkeus merenpinnasta: 8 m

Tämänhetkinen sää

Tämä raportti tehtiin 18 minuuttia sitten, kello 11.00 UTC
Tuuli 8 kn idästä/kaakosta, vaihdellen idän/koillisen ja etelän välillä
Lämpötila 28°C
Kosteus 74%
Ilmanpaine 1014 hPa
Näkyvyys 10 km tai enemmän
Muutamia pilviä 2200 ft:n korkeudessa

METAR: TAPA 211100Z 11008KT 060V180 9999 FEW022 28/23 Q1014 NOSIG

Aika: 07:18 (11:18 UTC)

Sääennuste

Tämä raportti tehtiin 6 tuntia ja 18 minuuttia sitten, kello 05.00 UTC
Ennuste voimassa 21. päivästä klo 06 UTC - 22. päivään klo 06 UTC
Tuuli 10 kn idästä/kaakosta
Näkyvyys 10 km tai enemmän
Hajanaisia pilviä 2000 ft:n korkeudessa

TAF: TAPA 210500Z 2106/2206 11010KT 9999 SCT020

Säähavainnot ja -ennusteet yli 4000 lentoasemalta (METAR- ja TAF-raportit).

Käytössä olevat sääasemat on merkitty karttaan keltaisilla ja punaisilla pisteillä.

Aseta hiiri pisteen päälle nähdäksesi sääaseman nimen.

Klikkaa sitten nähdäksesi säähavainnot ja -ennusteet.

Kartan vaihtaminen: klikkaa mustalla rastilla varustettuja vihreitä pisteitä, niin voit zoomata sisään; viivalla varustettua vihreää pistettä, niin voit zoomata ulos tai vihreitä nuolia, niin pääset viereisille kartoille.


METAR-TAF: